Time;durP1;ratioP1;P1;durP2;ratioP2;P2;SDS_P1;SDS_P2;PMS_P1;PMS_P2;Temp;Humidity;BMP_temperature;BMP_pressure;BME280_temperature;BME280_humidity;BME280_pressure;Samples;Min_cycle;Max_cycle;Signal;HPM_P1;HPM_P2
2023/12/18 00:02:22;;;;;;;92.18;26.70;;;;;;;;;;7375225;19;20363;-77
2023/12/18 00:04:47;;;;;;;80.97;26.70;;;;;;;;;;7373801;19;20086;-78
2023/12/18 00:07:12;;;;;;;72.85;26.42;;;;;;;;;;7375154;19;20015;-78
2023/12/18 00:09:39;;;;;;;79.88;24.38;;;;;;;;;;7417434;19;20007;-78
2023/12/18 00:12:05;;;;;;;103.78;26.92;;;;;;;;;;7380444;19;20006;-78
2023/12/18 00:14:30;;;;;;;76.82;25.48;;;;;;;;;;7371742;19;20002;-77
2023/12/18 00:16:56;;;;;;;66.30;23.80;;;;;;;;;;7371869;19;20031;-78
2023/12/18 00:19:21;;;;;;;80.70;25.80;;;;;;;;;;7374357;19;20006;-79
2023/12/18 00:21:47;;;;;;;68.40;23.92;;;;;;;;;;7392778;19;20009;-80
2023/12/18 00:24:12;;;;;;;86.28;25.60;;;;;;;;;;7370010;19;20084;-80
2023/12/18 00:26:37;;;;;;;88.15;27.50;;;;;;;;;;7374619;19;20010;-78
2023/12/18 00:29:03;;;;;;;84.32;27.83;;;;;;;;;;7371851;19;20003;-78
2023/12/18 00:31:28;;;;;;;82.72;26.02;;;;;;;;;;7379598;19;20006;-78
2023/12/18 00:33:53;;;;;;;80.00;23.58;;;;;;;;;;7412076;19;20003;-81
2023/12/18 00:36:19;;;;;;;81.80;27.55;;;;;;;;;;7379508;19;20019;-79
2023/12/18 00:38:44;;;;;;;67.22;24.27;;;;;;;;;;7375298;19;20066;-79
2023/12/18 00:41:09;;;;;;;88.88;25.05;;;;;;;;;;7376610;19;20499;-79
2023/12/18 00:43:34;;;;;;;60.95;24.73;;;;;;;;;;7372877;19;20032;-79
2023/12/18 00:46:03;;;;;;;76.35;21.30;;;;;;;;;;7376110;19;20002;-79
2023/12/18 00:48:28;;;;;;;71.13;23.15;;;;;;;;;;7398176;19;20003;-78
2023/12/18 00:50:54;;;;;;;54.42;21.98;;;;;;;;;;7377114;19;20006;-78
2023/12/18 00:53:19;;;;;;;74.57;23.70;;;;;;;;;;7377617;19;20006;-78
2023/12/18 00:55:44;;;;;;;58.08;20.65;;;;;;;;;;7377884;19;20351;-78
2023/12/18 00:58:10;;;;;;;56.08;20.65;;;;;;;;;;7375161;19;20002;-79
2023/12/18 01:00:35;;;;;;;66.53;22.52;;;;;;;;;;7397859;19;19999;-78
2023/12/18 01:03:00;;;;;;;73.80;20.58;;;;;;;;;;7373351;19;20039;-79
2023/12/18 01:05:26;;;;;;;45.67;20.35;;;;;;;;;;7375289;19;19999;-78
2023/12/18 01:07:51;;;;;;;62.00;19.40;;;;;;;;;;7374194;19;20493;-78
2023/12/18 01:10:16;;;;;;;55.55;20.27;;;;;;;;;;7375674;19;20014;-79
2023/12/18 01:12:42;;;;;;;51.65;19.02;;;;;;;;;;7397371;19;20592;-78
2023/12/18 01:15:07;;;;;;;60.08;20.13;;;;;;;;;;7370537;19;20014;-78
2023/12/18 01:17:34;;;;;;;38.53;16.73;;;;;;;;;;7371223;19;20010;-81
2023/12/18 01:20:00;;;;;;;70.40;19.67;;;;;;;;;;7372088;19;20018;-79
2023/12/18 01:22:26;;;;;;;59.38;17.90;;;;;;;;;;7369332;19;20010;-78
2023/12/18 01:24:51;;;;;;;54.70;19.08;;;;;;;;;;7391549;19;20502;-78
2023/12/18 01:27:16;;;;;;;52.85;18.38;;;;;;;;;;7366677;19;20003;-78
2023/12/18 01:29:42;;;;;;;44.17;18.73;;;;;;;;;;7370415;19;20106;-78
2023/12/18 01:32:08;;;;;;;45.13;16.80;;;;;;;;;;7372614;19;20016;-78
2023/12/18 01:34:34;;;;;;;57.92;18.73;;;;;;;;;;7385189;19;20006;-78
2023/12/18 01:36:59;;;;;;;44.47;16.98;;;;;;;;;;7394328;19;20006;-78
2023/12/18 01:39:24;;;;;;;43.13;16.38;;;;;;;;;;7395019;19;20023;-78
2023/12/18 01:41:50;;;;;;;57.55;17.55;;;;;;;;;;7373296;19;20011;-78
2023/12/18 01:44:15;;;;;;;52.95;15.80;;;;;;;;;;7371689;19;20006;-78
2023/12/18 01:46:40;;;;;;;36.85;15.13;;;;;;;;;;7369924;19;20010;-78
2023/12/18 01:49:07;;;;;;;47.30;14.32;;;;;;;;;;7372082;19;20010;-78
2023/12/18 01:51:35;;;;;;;44.88;15.60;;;;;;;;;;7395716;19;20055;-78
2023/12/18 01:54:01;;;;;;;37.90;13.93;;;;;;;;;;7369861;19;20002;-78
2023/12/18 01:56:30;;;;;;;57.47;16.48;;;;;;;;;;7368703;19;20121;-78
2023/12/18 01:58:59;;;;;;;37.25;15.18;;;;;;;;;;7371377;19;20354;-78
2023/12/18 02:01:47;;;;;;;49.75;15.55;;;;;;;;;;7372882;19;20520;-78
2023/12/18 02:04:13;;;;;;;44.33;15.60;;;;;;;;;;7384445;19;20010;-78
2023/12/18 02:06:39;;;;;;;39.15;15.35;;;;;;;;;;7400507;19;20027;-78
2023/12/18 02:09:04;;;;;;;41.63;15.30;;;;;;;;;;7373354;19;20676;-77
2023/12/18 02:11:29;;;;;;;44.13;15.93;;;;;;;;;;7366798;19;20042;-78
2023/12/18 02:13:55;;;;;;;43.53;15.98;;;;;;;;;;7366272;19;20023;-77
2023/12/18 02:16:22;;;;;;;39.83;16.20;;;;;;;;;;7366096;19;20495;-77
2023/12/18 02:18:47;;;;;;;52.67;15.30;;;;;;;;;;7387992;19;20034;-77
2023/12/18 02:21:22;;;;;;;54.97;16.98;;;;;;;;;;7367130;19;20011;-77
2023/12/18 02:23:48;;;;;;;41.22;14.90;;;;;;;;;;7366008;19;20010;-79
2023/12/18 02:26:15;;;;;;;55.20;16.83;;;;;;;;;;7367140;19;20086;-78
2023/12/18 02:28:43;;;;;;;38.47;16.02;;;;;;;;;;7374897;19;20003;-78
2023/12/18 02:31:09;;;;;;;41.53;15.23;;;;;;;;;;7376377;19;20023;-79
2023/12/18 02:33:35;;;;;;;42.50;15.88;;;;;;;;;;7398537;19;20009;-78
2023/12/18 02:36:01;;;;;;;45.58;16.48;;;;;;;;;;7379666;19;20010;-77
2023/12/18 02:38:26;;;;;;;44.75;17.60;;;;;;;;;;7379648;19;20026;-78
2023/12/18 02:40:52;;;;;;;55.25;16.27;;;;;;;;;;7382467;19;20015;-78
2023/12/18 02:43:17;;;;;;;43.80;15.95;;;;;;;;;;7397929;19;20028;-78
2023/12/18 02:45:42;;;;;;;45.80;16.60;;;;;;;;;;7422712;19;20002;-78
2023/12/18 02:48:08;;;;;;;47.35;16.42;;;;;;;;;;7386294;19;20069;-78
2023/12/18 02:50:33;;;;;;;48.53;16.75;;;;;;;;;;7376445;19;20003;-78
2023/12/18 02:52:59;;;;;;;41.42;14.57;;;;;;;;;;7378863;19;20074;-80
2023/12/18 02:55:24;;;;;;;46.85;16.40;;;;;;;;;;7378126;19;20019;-78
2023/12/18 02:57:49;;;;;;;46.58;15.70;;;;;;;;;;7397675;19;20014;-78
2023/12/18 03:00:15;;;;;;;40.13;16.42;;;;;;;;;;7376183;19;20449;-78
2023/12/18 03:02:40;;;;;;;42.38;15.80;;;;;;;;;;7374563;19;20010;-78
2023/12/18 03:05:06;;;;;;;58.58;17.98;;;;;;;;;;7374402;19;20007;-78
2023/12/18 03:07:31;;;;;;;33.63;12.88;;;;;;;;;;7375094;19;20019;-79
2023/12/18 03:09:57;;;;;;;41.30;16.25;;;;;;;;;;7372109;19;20007;-78
2023/12/18 03:12:22;;;;;;;41.97;15.73;;;;;;;;;;7398413;19;20006;-78
2023/12/18 03:14:47;;;;;;;43.92;15.68;;;;;;;;;;7373412;19;20011;-77
2023/12/18 03:17:13;;;;;;;40.00;14.93;;;;;;;;;;7370739;19;20034;-78
2023/12/18 03:19:38;;;;;;;48.95;15.43;;;;;;;;;;7370202;19;20069;-77
2023/12/18 03:22:04;;;;;;;66.63;16.30;;;;;;;;;;7377449;19;20003;-77
2023/12/18 03:24:29;;;;;;;49.75;17.02;;;;;;;;;;7399567;19;20001;-77
2023/12/18 03:26:54;;;;;;;42.83;15.43;;;;;;;;;;7374962;19;20058;-79
2023/12/18 03:29:20;;;;;;;38.00;15.75;;;;;;;;;;7373846;19;20366;-78
2023/12/18 03:31:45;;;;;;;43.03;16.38;;;;;;;;;;7377244;19;19998;-78
2023/12/18 03:34:11;;;;;;;52.35;16.75;;;;;;;;;;7375495;19;20002;-77
2023/12/18 03:36:36;;;;;;;60.17;16.63;;;;;;;;;;7400671;19;20591;-79
2023/12/18 03:39:02;;;;;;;52.05;16.98;;;;;;;;;;7376290;19;20021;-78
2023/12/18 03:41:27;;;;;;;82.80;18.52;;;;;;;;;;7376668;19;20005;-79
2023/12/18 03:43:52;;;;;;;47.55;15.50;;;;;;;;;;7374753;19;20401;-78
2023/12/18 03:46:18;;;;;;;61.08;17.23;;;;;;;;;;7376295;19;20018;-79
2023/12/18 03:48:43;;;;;;;53.25;17.80;;;;;;;;;;7401284;19;20002;-79
2023/12/18 03:51:10;;;;;;;62.50;15.90;;;;;;;;;;7385744;19;20007;-77
2023/12/18 03:53:35;;;;;;;69.32;18.75;;;;;;;;;;7383487;19;20042;-79
2023/12/18 03:56:01;;;;;;;80.32;17.40;;;;;;;;;;7374109;19;20003;-78
2023/12/18 03:58:26;;;;;;;78.47;17.95;;;;;;;;;;7377829;19;20036;-78
2023/12/18 04:00:51;;;;;;;54.63;17.50;;;;;;;;;;7400436;19;20445;-78
2023/12/18 04:03:17;;;;;;;55.72;17.38;;;;;;;;;;7406966;19;20035;-78
2023/12/18 04:05:42;;;;;;;67.18;17.88;;;;;;;;;;7400653;19;20013;-78
2023/12/18 04:08:07;;;;;;;79.45;19.27;;;;;;;;;;7376549;19;20012;-78
2023/12/18 04:10:32;;;;;;;73.03;17.52;;;;;;;;;;7375826;19;20086;-78
2023/12/18 04:12:58;;;;;;;54.42;17.42;;;;;;;;;;7373352;19;20042;-78
2023/12/18 04:15:24;;;;;;;72.88;18.60;;;;;;;;;;7394974;19;20390;-80
2023/12/18 04:17:49;;;;;;;75.25;19.52;;;;;;;;;;7373960;19;20029;-78
2023/12/18 04:20:16;;;;;;;60.15;20.98;;;;;;;;;;7376049;19;20377;-79
2023/12/18 04:22:41;;;;;;;65.63;18.73;;;;;;;;;;7374425;19;20010;-78
2023/12/18 04:25:07;;;;;;;53.92;17.80;;;;;;;;;;7371918;19;20014;-78
2023/12/18 04:27:32;;;;;;;58.75;19.15;;;;;;;;;;7394062;19;20441;-79
2023/12/18 04:29:57;;;;;;;60.78;18.98;;;;;;;;;;7372775;19;20010;-78
2023/12/18 04:32:23;;;;;;;65.22;17.63;;;;;;;;;;7374073;19;20114;-78
2023/12/18 04:34:48;;;;;;;68.90;18.38;;;;;;;;;;7374561;19;20017;-77
2023/12/18 04:37:13;;;;;;;79.07;21.52;;;;;;;;;;7375674;19;20013;-80
2023/12/18 04:39:39;;;;;;;71.28;21.52;;;;;;;;;;7395138;19;20017;-79
2023/12/18 04:42:04;;;;;;;61.88;20.83;;;;;;;;;;7374078;19;20011;-78
2023/12/18 04:44:30;;;;;;;70.97;20.67;;;;;;;;;;7374938;19;20006;-79
2023/12/18 04:46:55;;;;;;;79.55;20.15;;;;;;;;;;7375466;19;20022;-79
2023/12/18 04:49:21;;;;;;;72.60;19.02;;;;;;;;;;7381009;19;20006;-78
2023/12/18 04:51:47;;;;;;;86.75;18.77;;;;;;;;;;7409038;19;20007;-78
2023/12/18 04:54:13;;;;;;;62.65;19.33;;;;;;;;;;7377649;19;20031;-79
2023/12/18 04:56:38;;;;;;;63.78;21.80;;;;;;;;;;7380642;19;20018;-80
2023/12/18 04:59:04;;;;;;;85.10;21.60;;;;;;;;;;7378918;19;20450;-79
2023/12/18 05:01:29;;;;;;;62.55;19.27;;;;;;;;;;7377942;19;20042;-79
2023/12/18 05:03:54;;;;;;;66.03;18.77;;;;;;;;;;7404242;19;20540;-77
2023/12/18 05:06:21;;;;;;;81.85;20.73;;;;;;;;;;7387385;19;20028;-79
2023/12/18 05:08:48;;;;;;;75.07;19.15;;;;;;;;;;7380545;19;19995;-78
2023/12/18 05:11:18;;;;;;;49.20;17.45;;;;;;;;;;7386500;19;19995;-79
2023/12/18 05:13:43;;;;;;;71.25;20.85;;;;;;;;;;7378271;19;20015;-77
2023/12/18 05:16:08;;;;;;;60.33;19.42;;;;;;;;;;7383587;19;20046;-78
2023/12/18 05:18:34;;;;;;;52.13;18.63;;;;;;;;;;7406786;19;20006;-79
2023/12/18 05:20:59;;;;;;;59.33;20.45;;;;;;;;;;7381912;19;20497;-79
2023/12/18 05:23:25;;;;;;;55.80;19.80;;;;;;;;;;7391406;19;20010;-79
2023/12/18 05:25:51;;;;;;;63.28;20.23;;;;;;;;;;7390128;19;20002;-79
2023/12/18 05:28:16;;;;;;;59.03;21.90;;;;;;;;;;7381995;19;20108;-79
2023/12/18 05:30:42;;;;;;;65.32;21.10;;;;;;;;;;7398722;19;20002;-79
2023/12/18 05:33:08;;;;;;;48.38;15.98;;;;;;;;;;7377488;19;20016;-80
2023/12/18 05:35:33;;;;;;;56.13;15.88;;;;;;;;;;7372531;19;20011;-80
2023/12/18 05:37:58;;;;;;;57.00;24.65;;;;;;;;;;7367158;19;20808;-79
2023/12/18 05:40:24;;;;;;;89.05;38.55;;;;;;;;;;7369652;19;20238;-78
2023/12/18 05:42:49;;;;;;;70.15;26.73;;;;;;;;;;7391482;19;20093;-79
2023/12/18 05:45:15;;;;;;;57.22;21.75;;;;;;;;;;7373842;19;20029;-78
2023/12/18 05:47:40;;;;;;;55.05;18.02;;;;;;;;;;7370873;19;20010;-78
2023/12/18 05:50:06;;;;;;;55.55;22.25;;;;;;;;;;7385500;19;20054;-78
2023/12/18 05:52:31;;;;;;;52.42;20.73;;;;;;;;;;7394647;19;20015;-78
2023/12/18 05:54:57;;;;;;;52.83;21.17;;;;;;;;;;7393231;19;20009;-77
2023/12/18 05:57:22;;;;;;;46.47;18.88;;;;;;;;;;7420143;19;19998;-80
2023/12/18 05:59:47;;;;;;;46.42;18.55;;;;;;;;;;7398800;19;19998;-78
2023/12/18 06:02:13;;;;;;;56.08;19.23;;;;;;;;;;7395639;19;20035;-78
2023/12/18 06:04:41;;;;;;;49.63;19.17;;;;;;;;;;7397933;19;20006;-78
2023/12/18 06:07:07;;;;;;;50.08;18.88;;;;;;;;;;7400022;19;20031;-78
2023/12/18 06:09:32;;;;;;;43.13;18.65;;;;;;;;;;7414030;19;20066;-78
2023/12/18 06:11:57;;;;;;;55.67;16.95;;;;;;;;;;7395573;19;20061;-78
2023/12/18 06:14:22;;;;;;;62.15;17.88;;;;;;;;;;7384446;19;20010;-78
2023/12/18 06:16:48;;;;;;;46.22;16.30;;;;;;;;;;7376551;19;20006;-80
2023/12/18 06:19:13;;;;;;;56.53;14.93;;;;;;;;;;7376156;19;20554;-78
2023/12/18 06:21:42;;;;;;;43.17;15.35;;;;;;;;;;7407051;19;19999;-78
2023/12/18 06:24:07;;;;;;;38.30;14.85;;;;;;;;;;7379241;19;20538;-78
2023/12/18 06:26:33;;;;;;;43.83;15.40;;;;;;;;;;7378303;19;20010;-78
2023/12/18 06:28:58;;;;;;;42.13;14.68;;;;;;;;;;7382205;19;20058;-78
2023/12/18 06:31:23;;;;;;;38.88;17.10;;;;;;;;;;7383840;19;20007;-78
2023/12/18 06:33:49;;;;;;;46.20;18.00;;;;;;;;;;7404651;19;20014;-78
2023/12/18 06:36:16;;;;;;;52.60;16.88;;;;;;;;;;7378016;19;20014;-77
2023/12/18 06:38:41;;;;;;;53.05;16.25;;;;;;;;;;7369273;19;20002;-77
2023/12/18 06:41:07;;;;;;;41.90;15.73;;;;;;;;;;7379206;19;19999;-79
2023/12/18 06:43:33;;;;;;;38.22;15.30;;;;;;;;;;7381370;19;19998;-78
2023/12/18 06:45:59;;;;;;;36.38;14.55;;;;;;;;;;7377341;19;20130;-77
2023/12/18 06:48:25;;;;;;;39.72;17.25;;;;;;;;;;7397113;19;20429;-78
2023/12/18 06:50:50;;;;;;;36.42;15.10;;;;;;;;;;7381647;19;20003;-77
2023/12/18 06:53:15;;;;;;;38.97;15.82;;;;;;;;;;7377257;19;19995;-79
2023/12/18 06:55:41;;;;;;;36.65;15.98;;;;;;;;;;7381073;19;20013;-79
2023/12/18 06:58:06;;;;;;;34.45;13.88;;;;;;;;;;7382198;19;20296;-79
2023/12/18 07:00:31;;;;;;;41.45;15.52;;;;;;;;;;7403741;19;20019;-79
2023/12/18 07:02:57;;;;;;;35.45;15.68;;;;;;;;;;7386331;19;19999;-79
2023/12/18 07:05:23;;;;;;;39.60;15.40;;;;;;;;;;7394392;19;20637;-79
2023/12/18 07:07:49;;;;;;;44.25;15.05;;;;;;;;;;7381754;19;20013;-77
2023/12/18 07:10:14;;;;;;;35.63;15.90;;;;;;;;;;7375785;19;20012;-78
2023/12/18 07:12:39;;;;;;;35.65;14.48;;;;;;;;;;7397756;19;20015;-77
2023/12/18 07:15:06;;;;;;;33.45;14.75;;;;;;;;;;7377278;19;20146;-77
2023/12/18 07:17:31;;;;;;;37.22;15.55;;;;;;;;;;7373053;19;20015;-77
2023/12/18 07:19:57;;;;;;;50.42;16.55;;;;;;;;;;7366518;19;19998;-77
2023/12/18 07:22:22;;;;;;;37.47;15.07;;;;;;;;;;7360113;19;20006;-77
2023/12/18 07:24:48;;;;;;;41.28;16.60;;;;;;;;;;7392630;19;19999;-77
2023/12/18 07:27:14;;;;;;;46.88;16.08;;;;;;;;;;7367639;19;20037;-77
2023/12/18 07:29:39;;;;;;;46.78;15.30;;;;;;;;;;7370308;19;20006;-77
2023/12/18 07:32:05;;;;;;;36.97;15.15;;;;;;;;;;7376596;19;20460;-77
2023/12/18 07:34:31;;;;;;;33.38;15.48;;;;;;;;;;7368223;19;20010;-78
2023/12/18 07:36:56;;;;;;;32.78;15.48;;;;;;;;;;7377435;19;20469;-78
2023/12/18 07:39:24;;;;;;;39.38;15.30;;;;;;;;;;7394288;19;20050;-77
2023/12/18 07:41:49;;;;;;;33.42;15.20;;;;;;;;;;7380481;19;20011;-77
2023/12/18 07:44:15;;;;;;;38.00;16.02;;;;;;;;;;7375452;19;20042;-78
2023/12/18 07:46:40;;;;;;;32.08;14.93;;;;;;;;;;7373050;19;20009;-78
2023/12/18 07:49:06;;;;;;;33.90;15.10;;;;;;;;;;7370152;19;19995;-78
2023/12/18 07:51:33;;;;;;;37.83;15.23;;;;;;;;;;7395187;19;20014;-78
2023/12/18 07:53:58;;;;;;;31.95;15.02;;;;;;;;;;7380096;19;20139;-78
2023/12/18 07:56:24;;;;;;;54.67;17.13;;;;;;;;;;7388730;19;20014;-77
2023/12/18 07:58:49;;;;;;;34.28;14.15;;;;;;;;;;7377091;19;20033;-78
2023/12/18 08:01:16;;;;;;;32.95;14.55;;;;;;;;;;7373523;19;19998;-78
2023/12/18 08:03:42;;;;;;;36.60;14.65;;;;;;;;;;7391829;19;19998;-78
2023/12/18 08:06:07;;;;;;;31.25;14.50;;;;;;;;;;7371810;19;19999;-78
2023/12/18 08:08:33;;;;;;;33.58;15.35;;;;;;;;;;7394738;19;20010;-78
2023/12/18 08:10:58;;;;;;;37.55;19.13;;;;;;;;;;7371528;19;20537;-78
2023/12/18 08:13:24;;;;;;;33.45;14.82;;;;;;;;;;7374048;19;20591;-78
2023/12/18 08:15:50;;;;;;;40.72;15.15;;;;;;;;;;7372707;19;20108;-78
2023/12/18 08:18:15;;;;;;;31.73;14.63;;;;;;;;;;7374779;19;20058;-78
2023/12/18 08:20:42;;;;;;;29.15;14.60;;;;;;;;;;7414441;19;19998;-78
2023/12/18 08:23:08;;;;;;;27.83;14.38;;;;;;;;;;7397404;19;20003;-78
2023/12/18 08:25:34;;;;;;;27.08;13.48;;;;;;;;;;7384513;19;20007;-78
2023/12/18 08:27:59;;;;;;;37.42;13.93;;;;;;;;;;7381157;19;20011;-78
2023/12/18 08:30:24;;;;;;;33.92;17.27;;;;;;;;;;7395560;19;20006;-78
2023/12/18 08:32:50;;;;;;;33.03;14.65;;;;;;;;;;7381504;19;20006;-78
2023/12/18 08:35:15;;;;;;;29.73;13.43;;;;;;;;;;7392402;19;19998;-78
2023/12/18 08:37:40;;;;;;;24.75;13.07;;;;;;;;;;7370314;19;20027;-78
2023/12/18 08:40:06;;;;;;;26.48;13.80;;;;;;;;;;7370552;19;20086;-78
2023/12/18 08:42:32;;;;;;;23.38;12.93;;;;;;;;;;7371892;19;20010;-78
2023/12/18 08:44:57;;;;;;;32.38;14.02;;;;;;;;;;7372069;19;20623;-79
2023/12/18 08:47:22;;;;;;;32.20;14.38;;;;;;;;;;7392950;19;19994;-78
2023/12/18 08:49:47;;;;;;;31.25;13.77;;;;;;;;;;7373396;19;19998;-78
2023/12/18 08:52:13;;;;;;;26.65;14.65;;;;;;;;;;7377104;19;20027;-78
2023/12/18 08:54:38;;;;;;;34.25;15.20;;;;;;;;;;7377374;19;20012;-78
2023/12/18 08:57:03;;;;;;;33.90;14.50;;;;;;;;;;7376339;19;20007;-78
2023/12/18 08:59:29;;;;;;;31.52;15.13;;;;;;;;;;7398056;19;20622;-78
2023/12/18 09:01:54;;;;;;;27.70;14.52;;;;;;;;;;7374935;19;20066;-78
2023/12/18 09:04:20;;;;;;;31.13;14.55;;;;;;;;;;7373637;19;20003;-78
2023/12/18 09:06:45;;;;;;;30.92;17.70;;;;;;;;;;7380052;19;20417;-78
2023/12/18 09:09:11;;;;;;;25.75;14.57;;;;;;;;;;7375617;19;20006;-77
2023/12/18 09:11:37;;;;;;;23.42;12.73;;;;;;;;;;7388251;19;20110;-77
2023/12/18 09:14:05;;;;;;;36.58;14.73;;;;;;;;;;7366991;19;20023;-77
2023/12/18 09:16:30;;;;;;;29.80;14.95;;;;;;;;;;7370004;19;20094;-77
2023/12/18 09:18:56;;;;;;;32.50;13.50;;;;;;;;;;7372903;19;20014;-77
2023/12/18 09:21:21;;;;;;;25.10;14.13;;;;;;;;;;7375122;19;20022;-78
2023/12/18 09:23:47;;;;;;;24.45;13.73;;;;;;;;;;7372750;19;19999;-78
2023/12/18 09:26:13;;;;;;;24.05;12.65;;;;;;;;;;7392659;19;20002;-78
2023/12/18 09:28:39;;;;;;;22.33;12.57;;;;;;;;;;7371314;19;20026;-77
2023/12/18 09:31:08;;;;;;;20.40;12.15;;;;;;;;;;7373472;19;20015;-77
2023/12/18 09:33:33;;;;;;;26.02;13.98;;;;;;;;;;7371752;19;19999;-78
2023/12/18 09:35:59;;;;;;;24.05;12.82;;;;;;;;;;7372124;19;20002;-78
2023/12/18 09:38:25;;;;;;;20.63;12.40;;;;;;;;;;7392804;19;20014;-77
2023/12/18 09:40:50;;;;;;;24.23;13.13;;;;;;;;;;7371447;19;20027;-78
2023/12/18 09:43:17;;;;;;;19.05;11.50;;;;;;;;;;7371736;19;20010;-77
2023/12/18 09:45:44;;;;;;;20.83;12.52;;;;;;;;;;7361447;19;20010;-78
2023/12/18 09:48:09;;;;;;;21.58;11.63;;;;;;;;;;7369758;19;20094;-78
2023/12/18 09:50:34;;;;;;;20.75;12.32;;;;;;;;;;7393898;19;20790;-78
2023/12/18 09:53:08;;;;;;;21.30;12.55;;;;;;;;;;7373050;19;20023;-78
2023/12/18 09:55:34;;;;;;;19.77;12.02;;;;;;;;;;7382498;19;20002;-77
2023/12/18 09:58:00;;;;;;;20.33;11.98;;;;;;;;;;7385005;19;20002;-77
2023/12/18 10:00:26;;;;;;;21.15;12.18;;;;;;;;;;7380749;19;20595;-77
2023/12/18 10:02:57;;;;;;;21.67;12.68;;;;;;;;;;7378605;19;20524;-77
2023/12/18 10:05:23;;;;;;;30.67;12.98;;;;;;;;;;7399443;19;20024;-78
2023/12/18 10:07:48;;;;;;;22.65;12.35;;;;;;;;;;7376686;19;21729;-78
2023/12/18 10:10:15;;;;;;;25.10;13.15;;;;;;;;;;7371645;19;20010;-78
2023/12/18 10:12:40;;;;;;;22.67;12.25;;;;;;;;;;7369821;19;20006;-77
2023/12/18 10:15:11;;;;;;;21.35;11.93;;;;;;;;;;7360036;19;20013;-77
2023/12/18 10:17:43;;;;;;;22.33;12.40;;;;;;;;;;7389329;19;20349;-77
2023/12/18 10:20:11;;;;;;;21.48;12.60;;;;;;;;;;7368662;19;19999;-77
2023/12/18 10:22:36;;;;;;;20.88;11.50;;;;;;;;;;7371954;19;20011;-77
2023/12/18 10:25:02;;;;;;;19.45;11.77;;;;;;;;;;7373339;19;20104;-77
2023/12/18 10:27:31;;;;;;;17.30;11.45;;;;;;;;;;7366652;19;20014;-77
2023/12/18 10:29:57;;;;;;;19.40;11.90;;;;;;;;;;7374180;19;20406;-77
2023/12/18 10:32:22;;;;;;;22.80;12.63;;;;;;;;;;7393666;19;20010;-77
2023/12/18 10:34:52;;;;;;;25.73;13.85;;;;;;;;;;7371019;19;20006;-77
2023/12/18 10:37:19;;;;;;;24.40;12.85;;;;;;;;;;7382507;19;20036;-77
2023/12/18 10:39:47;;;;;;;22.77;13.48;;;;;;;;;;7379774;19;20424;-77
2023/12/18 10:42:23;;;;;;;21.33;12.38;;;;;;;;;;7365629;19;19998;-77
2023/12/18 10:44:49;;;;;;;21.88;13.10;;;;;;;;;;7370544;19;20041;-77
2023/12/18 10:47:16;;;;;;;23.30;13.02;;;;;;;;;;7384501;19;20055;-77
2023/12/18 10:49:42;;;;;;;24.80;13.68;;;;;;;;;;7363165;19;20699;-77
2023/12/18 10:52:08;;;;;;;24.23;13.15;;;;;;;;;;7363615;19;20010;-77
2023/12/18 10:54:34;;;;;;;20.70;12.30;;;;;;;;;;7362933;19;20672;-77
2023/12/18 10:57:01;;;;;;;20.55;11.88;;;;;;;;;;7363939;19;20720;-77
2023/12/18 10:59:28;;;;;;;19.05;12.07;;;;;;;;;;7388475;19;20050;-77
2023/12/18 11:01:54;;;;;;;20.05;12.75;;;;;;;;;;7363963;19;20006;-77
2023/12/18 11:04:22;;;;;;;23.88;13.50;;;;;;;;;;7364405;19;19999;-77
2023/12/18 11:06:47;;;;;;;18.75;11.45;;;;;;;;;;7369684;19;20006;-77
2023/12/18 11:09:12;;;;;;;20.27;12.32;;;;;;;;;;7370308;19;20395;-76
2023/12/18 11:11:39;;;;;;;20.83;12.15;;;;;;;;;;7390759;19;19994;-76
2023/12/18 11:14:23;;;;;;;22.25;12.90;;;;;;;;;;7366832;19;20010;-76
2023/12/18 11:17:23;;;;;;;21.85;13.90;;;;;;;;;;7368269;19;20003;-76
2023/12/18 11:19:53;;;;;;;25.23;13.65;;;;;;;;;;7374795;19;20554;-76
2023/12/18 11:22:22;;;;;;;23.70;13.43;;;;;;;;;;7368870;19;20007;-76
2023/12/18 11:24:48;;;;;;;22.45;13.27;;;;;;;;;;7365493;19;20944;-76
2023/12/18 11:27:16;;;;;;;22.20;13.05;;;;;;;;;;7366493;19;20010;-76
2023/12/18 11:29:46;;;;;;;23.80;13.50;;;;;;;;;;7389653;19;20007;-78
2023/12/18 11:32:42;;;;;;;24.35;13.70;;;;;;;;;;7367656;19;20077;-78
2023/12/18 11:35:15;;;;;;;23.33;13.82;;;;;;;;;;7369091;19;20065;-78
2023/12/18 11:37:44;;;;;;;21.95;13.32;;;;;;;;;;7369895;19;20425;-78
2023/12/18 11:40:33;;;;;;;23.42;13.82;;;;;;;;;;7372302;19;20003;-77
2023/12/18 11:42:59;;;;;;;22.55;13.45;;;;;;;;;;7368473;19;20006;-78
2023/12/18 11:45:25;;;;;;;25.20;14.82;;;;;;;;;;7369035;19;20499;-78
2023/12/18 11:47:52;;;;;;;27.15;15.95;;;;;;;;;;7367347;19;20029;-76
2023/12/18 11:50:21;;;;;;;27.52;15.55;;;;;;;;;;7390844;19;20444;-74
2023/12/18 11:52:49;;;;;;;26.10;15.30;;;;;;;;;;7369507;19;20070;-74
2023/12/18 11:55:37;;;;;;;28.83;15.45;;;;;;;;;;7370319;19;20006;-75
2023/12/18 11:58:03;;;;;;;23.58;13.63;;;;;;;;;;7367764;19;19998;-76
2023/12/18 12:00:30;;;;;;;24.40;14.55;;;;;;;;;;7367890;19;20006;-76
2023/12/18 12:02:55;;;;;;;26.38;14.52;;;;;;;;;;7367696;19;19998;-76
2023/12/18 12:05:21;;;;;;;24.58;14.27;;;;;;;;;;7389876;19;20010;-76
2023/12/18 12:07:50;;;;;;;25.80;14.50;;;;;;;;;;7369793;19;20002;-76
2023/12/18 12:10:15;;;;;;;24.10;14.15;;;;;;;;;;7367053;19;20006;-76
2023/12/18 12:12:41;;;;;;;25.05;14.40;;;;;;;;;;7367674;19;20474;-76
2023/12/18 12:15:06;;;;;;;24.10;14.18;;;;;;;;;;7367494;19;20030;-75
2023/12/18 12:17:32;;;;;;;25.83;13.88;;;;;;;;;;7387585;19;20058;-75
2023/12/18 12:19:58;;;;;;;23.52;13.52;;;;;;;;;;7367056;19;20027;-76
2023/12/18 12:22:24;;;;;;;22.20;13.75;;;;;;;;;;7368034;19;20010;-76
2023/12/18 12:24:49;;;;;;;21.38;13.75;;;;;;;;;;7366663;19;20393;-76
2023/12/18 12:27:14;;;;;;;20.75;13.10;;;;;;;;;;7366534;19;20009;-76
2023/12/18 12:29:40;;;;;;;22.17;14.10;;;;;;;;;;7388966;19;20017;-76
2023/12/18 12:32:06;;;;;;;23.85;14.45;;;;;;;;;;7366995;19;20019;-76
2023/12/18 12:34:31;;;;;;;20.60;13.40;;;;;;;;;;7366371;19;20090;-75
2023/12/18 12:37:02;;;;;;;21.15;14.23;;;;;;;;;;7365722;19;20041;-76
2023/12/18 12:39:27;;;;;;;21.95;13.23;;;;;;;;;;7367273;19;20086;-77
2023/12/18 12:41:52;;;;;;;21.92;13.45;;;;;;;;;;7366196;19;20024;-77
2023/12/18 12:44:18;;;;;;;24.45;14.85;;;;;;;;;;7386719;19;20481;-77
2023/12/18 12:46:43;;;;;;;26.88;14.65;;;;;;;;;;7366220;19;20475;-77
2023/12/18 12:49:10;;;;;;;24.83;14.25;;;;;;;;;;7371405;19;20007;-77
2023/12/18 12:51:40;;;;;;;26.00;14.95;;;;;;;;;;7373088;19;20005;-77
2023/12/18 12:54:05;;;;;;;20.65;13.27;;;;;;;;;;7373705;19;20044;-76
2023/12/18 12:56:31;;;;;;;22.77;14.73;;;;;;;;;;7387423;19;20003;-77
2023/12/18 12:58:56;;;;;;;22.25;13.75;;;;;;;;;;7366700;19;20513;-78
2023/12/18 13:01:22;;;;;;;24.75;14.57;;;;;;;;;;7365844;19;20002;-77
2023/12/18 13:03:48;;;;;;;24.70;14.30;;;;;;;;;;7366035;19;20006;-77
2023/12/18 13:06:14;;;;;;;23.95;14.10;;;;;;;;;;7366487;19;20367;-77
2023/12/18 13:08:40;;;;;;;26.52;15.13;;;;;;;;;;7388325;19;20010;-77
2023/12/18 13:11:06;;;;;;;22.52;14.23;;;;;;;;;;7369430;19;20003;-78
2023/12/18 13:13:32;;;;;;;22.88;14.20;;;;;;;;;;7354659;19;20829;-77
2023/12/18 13:15:59;;;;;;;25.23;15.68;;;;;;;;;;7365520;19;20033;-76
2023/12/18 13:18:25;;;;;;;23.33;15.13;;;;;;;;;;7365260;19;20010;-77
2023/12/18 13:20:50;;;;;;;25.17;15.65;;;;;;;;;;7365513;19;20006;-76
2023/12/18 13:23:15;;;;;;;28.02;16.05;;;;;;;;;;7386778;19;20074;-77
2023/12/18 13:25:41;;;;;;;24.58;15.05;;;;;;;;;;7366055;19;20023;-76
2023/12/18 13:28:07;;;;;;;27.30;16.88;;;;;;;;;;7365233;19;20033;-77
2023/12/18 13:30:32;;;;;;;28.45;16.60;;;;;;;;;;7366458;19;20444;-76
2023/12/18 13:32:58;;;;;;;29.48;15.80;;;;;;;;;;7366193;19;20106;-74
2023/12/18 13:35:23;;;;;;;29.65;17.38;;;;;;;;;;7387135;19;20010;-76
2023/12/18 13:37:49;;;;;;;32.90;17.70;;;;;;;;;;7365406;19;20021;-77
2023/12/18 13:40:15;;;;;;;30.67;16.05;;;;;;;;;;7364445;19;20011;-76
2023/12/18 13:42:40;;;;;;;31.95;16.98;;;;;;;;;;7364517;19;20003;-76
2023/12/18 13:45:07;;;;;;;32.78;17.90;;;;;;;;;;7365375;19;20014;-76
2023/12/18 13:47:32;;;;;;;38.30;18.83;;;;;;;;;;7388104;19;20010;-76
2023/12/18 13:49:59;;;;;;;30.88;17.63;;;;;;;;;;7364928;19;20006;-76
2023/12/18 13:52:25;;;;;;;32.33;18.40;;;;;;;;;;7365194;19;20006;-77
2023/12/18 13:54:51;;;;;;;33.50;19.02;;;;;;;;;;7365084;19;20006;-77
2023/12/18 13:57:16;;;;;;;32.95;18.38;;;;;;;;;;7364085;19;20038;-77
2023/12/18 13:59:42;;;;;;;30.77;18.15;;;;;;;;;;7386525;19;20010;-77
2023/12/18 14:02:07;;;;;;;31.83;17.65;;;;;;;;;;7367542;19;20007;-77
2023/12/18 14:04:32;;;;;;;33.13;18.83;;;;;;;;;;7364801;19;20715;-75
2023/12/18 14:06:58;;;;;;;30.13;17.27;;;;;;;;;;7364403;19;20017;-75
2023/12/18 14:09:24;;;;;;;30.77;17.45;;;;;;;;;;7363427;19;20051;-75
2023/12/18 14:11:50;;;;;;;35.00;18.88;;;;;;;;;;7363898;19;20533;-75